createdAt,value
2018-10-03T00:00:04.190Z,211.05
2018-10-03T00:02:32.696Z,224.88
2018-10-03T00:05:01.008Z,211.55
2018-10-03T00:07:29.574Z,222.78
2018-10-03T00:09:58.172Z,208.72
2018-10-03T00:12:27.685Z,230.85
2018-10-03T00:14:56.616Z,219.57
2018-10-03T00:17:24.963Z,222.15
2018-10-03T00:19:53.563Z,223.15
2018-10-03T00:22:22.895Z,220.22
2018-10-03T00:24:51.346Z,219.77
2018-10-03T00:27:19.835Z,216.85
2018-10-03T00:29:48.368Z,208.65
2018-10-03T00:32:16.725Z,218.88
2018-10-03T00:34:45.344Z,217.32
2018-10-03T00:37:14.162Z,218.07
2018-10-03T00:39:42.438Z,216.10
2018-10-03T00:42:10.856Z,223.82
2018-10-03T00:44:39.401Z,207.22
2018-10-03T00:47:07.757Z,213.45
2018-10-03T00:49:51.873Z,216.27
2018-10-03T00:52:21.055Z,217.65
2018-10-03T00:54:49.549Z,208.65
2018-10-03T00:57:18.305Z,218.02
2018-10-03T00:59:47.086Z,213.72
2018-10-03T01:02:15.765Z,211.85
2018-10-03T01:04:44.181Z,209.40
2018-10-03T01:07:12.680Z,223.80
2018-10-03T01:09:41.067Z,214.93
2018-10-03T01:12:09.791Z,218.20
2018-10-03T01:14:38.867Z,213.70
2018-10-03T01:17:08.099Z,220.70
2018-10-03T01:19:36.558Z,229.60
2018-10-03T01:22:04.854Z,214.27
2018-10-03T01:24:34.523Z,225.97
2018-10-03T01:27:03.108Z,228.07
2018-10-03T01:29:32.472Z,211.95
2018-10-03T01:32:03.961Z,216.15
2018-10-03T01:34:32.589Z,207.98
2018-10-03T01:37:01.583Z,219.05
2018-10-03T01:39:31.127Z,217.77
2018-10-03T01:42:00.344Z,217.65
2018-10-03T01:44:28.819Z,213.62
2018-10-03T01:46:57.211Z,215.10
2018-10-03T01:49:25.671Z,218.85
2018-10-03T01:51:54.200Z,212.53
2018-10-03T01:54:22.732Z,215.82
2018-10-03T01:56:51.185Z,216.80
2018-10-03T01:59:19.812Z,217.93
2018-10-03T02:01:48.358Z,215.45
2018-10-03T02:04:16.869Z,217.75
2018-10-03T02:06:45.353Z,222.22
2018-10-03T02:09:13.744Z,214.15
2018-10-03T02:11:42.791Z,217.53
2018-10-03T02:14:11.178Z,218.40
2018-10-03T02:16:39.812Z,212.65
2018-10-03T02:19:08.297Z,215.43
2018-10-03T02:21:37.085Z,231.02
2018-10-03T02:24:05.509Z,217.85
2018-10-03T02:26:33.805Z,216.68
2018-10-03T02:29:03.397Z,211.77
2018-10-03T02:31:31.740Z,216.88
2018-10-03T02:34:00.663Z,217.97
2018-10-03T02:36:29.585Z,218.15
2018-10-03T02:38:58.028Z,216.57
2018-10-03T02:41:26.522Z,216.85
2018-10-03T02:43:54.974Z,218.60
2018-10-03T02:46:23.613Z,227.82
2018-10-03T02:48:52.092Z,226.20
2018-10-03T02:51:20.833Z,216.42
2018-10-03T02:53:49.260Z,218.10
2018-10-03T02:56:17.932Z,223.13
2018-10-03T02:58:46.340Z,213.03
2018-10-03T03:01:14.950Z,221.10
2018-10-03T03:03:43.402Z,223.13
2018-10-03T03:06:12.148Z,217.72
2018-10-03T03:08:40.716Z,218.22
2018-10-03T03:11:09.119Z,214.53
2018-10-03T03:13:37.722Z,215.65
2018-10-03T03:16:06.172Z,217.47
2018-10-03T03:18:35.235Z,216.55
2018-10-03T03:21:03.836Z,213.47
2018-10-03T03:23:32.331Z,210.40
2018-10-03T03:26:00.703Z,215.47
2018-10-03T03:28:29.489Z,211.70
2018-10-03T03:30:57.803Z,214.80
2018-10-03T03:33:26.835Z,228.22
2018-10-03T03:35:55.363Z,218.17
2018-10-03T03:38:23.776Z,211.52
2018-10-03T03:40:52.166Z,213.70
2018-10-03T03:43:20.648Z,214.20
2018-10-03T03:45:49.354Z,220.97
2018-10-03T03:48:17.672Z,222.10
2018-10-03T03:50:46.084Z,222.33
2018-10-03T03:53:14.496Z,210.55
2018-10-03T03:55:44.002Z,212.53
2018-10-03T03:58:12.409Z,217.10
2018-10-03T04:00:41.555Z,228.32
2018-10-03T04:03:09.926Z,213.82
2018-10-03T04:05:38.401Z,223.00
2018-10-03T04:08:06.770Z,220.85
2018-10-03T04:10:35.460Z,210.23
2018-10-03T04:13:04.460Z,213.65
2018-10-03T04:15:33.100Z,219.05
2018-10-03T04:18:01.788Z,213.75
2018-10-03T04:20:30.171Z,222.95
2018-10-03T04:22:58.592Z,220.70
2018-10-03T04:25:27.099Z,222.27
2018-10-03T04:27:55.549Z,218.63
2018-10-03T04:30:24.217Z,221.30
2018-10-03T04:32:56.611Z,219.43
2018-10-03T04:35:27.229Z,214.10
2018-10-03T04:37:55.729Z,212.48
2018-10-03T04:40:24.445Z,218.95
2018-10-03T04:42:53.549Z,213.82
2018-10-03T04:45:23.050Z,213.92
2018-10-03T04:47:51.460Z,217.00
2018-10-03T04:50:19.948Z,216.48
2018-10-03T04:52:48.338Z,217.85
2018-10-03T04:55:16.933Z,216.93
2018-10-03T04:57:45.367Z,211.20
2018-10-03T05:00:13.870Z,219.60
2018-10-03T05:02:42.457Z,219.20
2018-10-03T05:05:11.048Z,215.10
2018-10-03T05:07:39.664Z,213.97
2018-10-03T05:10:08.140Z,223.10
2018-10-03T05:12:37.153Z,227.95
2018-10-03T05:15:05.730Z,219.70
2018-10-03T05:17:34.400Z,217.32
2018-10-03T05:20:02.765Z,214.10
2018-10-03T05:22:32.241Z,218.67
2018-10-03T05:25:00.607Z,213.45
2018-10-03T05:27:30.275Z,220.30
2018-10-03T05:29:58.925Z,228.88
2018-10-03T05:32:27.708Z,223.47
2018-10-03T05:34:57.712Z,220.15
2018-10-03T05:37:26.706Z,245.82
2018-10-03T05:39:55.316Z,218.07
2018-10-03T05:42:24.964Z,222.50
2018-10-03T05:44:53.477Z,220.73
2018-10-03T05:47:22.555Z,227.70
2018-10-03T05:49:51.028Z,218.30
2018-10-03T05:52:19.745Z,221.22
2018-10-03T05:54:48.334Z,212.23
2018-10-03T05:57:16.918Z,224.40
2018-10-03T05:59:45.401Z,227.93
2018-10-03T06:02:13.849Z,235.68
2018-10-03T06:04:42.378Z,236.50
2018-10-03T06:07:11.153Z,224.37
2018-10-03T06:09:39.734Z,217.55
2018-10-03T06:12:09.712Z,233.90
2018-10-03T06:14:38.985Z,215.03
2018-10-03T06:17:07.358Z,208.63
2018-10-03T06:19:36.487Z,214.53
2018-10-03T06:22:05.244Z,234.85
2018-10-03T06:24:33.827Z,224.42
2018-10-03T06:27:03.767Z,209.32
2018-10-03T06:29:32.487Z,214.65
2018-10-03T06:32:00.811Z,222.20
2018-10-03T06:34:29.276Z,220.80
2018-10-03T06:36:57.604Z,217.50
2018-10-03T08:00:49.328Z,274.30
2018-10-03T08:03:19.172Z,226.42
2018-10-03T08:05:47.659Z,263.60
2018-10-03T08:08:16.524Z,225.22
2018-10-03T08:10:45.083Z,213.82
2018-10-03T08:13:13.624Z,240.65
2018-10-03T08:15:41.934Z,217.00
2018-10-03T08:18:10.567Z,214.20
2018-10-03T08:20:38.974Z,218.17
2018-10-03T08:23:07.383Z,217.18
2018-10-03T08:25:36.074Z,217.87
2018-10-03T08:28:04.719Z,228.90
2018-10-03T08:30:33.042Z,220.15
2018-10-03T08:33:02.013Z,214.55
2018-10-03T08:35:30.605Z,209.37
2018-10-03T08:37:59.113Z,218.27
2018-10-03T08:40:27.949Z,216.90
2018-10-03T08:42:56.608Z,218.93
2018-10-03T08:45:27.090Z,238.45
2018-10-03T08:47:55.352Z,215.57
2018-10-03T08:50:23.768Z,222.95
2018-10-03T08:52:52.549Z,222.10
2018-10-03T08:55:25.084Z,222.35
2018-10-03T08:57:54.373Z,225.68
2018-10-03T09:00:22.916Z,219.28
2018-10-03T09:02:51.615Z,222.25
2018-10-03T09:05:20.144Z,229.40
2018-10-03T09:07:48.476Z,234.92
2018-10-03T09:10:19.783Z,227.30
2018-10-03T09:12:48.470Z,250.57
2018-10-03T09:15:16.845Z,236.75
2018-10-03T09:17:45.271Z,250.70
2018-10-03T09:20:14.269Z,266.30
2018-10-03T09:22:44.994Z,222.33
2018-10-03T09:25:13.393Z,234.37
2018-10-03T09:27:41.826Z,243.67
2018-10-03T09:30:10.164Z,249.45
2018-10-03T09:32:39.095Z,260.95
2018-10-03T09:35:09.004Z,280.55
2018-10-03T09:37:40.239Z,264.48
2018-10-03T09:40:12.666Z,233.57
2018-10-03T09:42:41.116Z,244.72
2018-10-03T09:45:10.266Z,250.80
2018-10-03T09:47:45.695Z,253.07
2018-10-03T09:50:15.893Z,243.17
2018-10-03T09:52:44.270Z,235.05
2018-10-03T09:55:12.780Z,237.25
2018-10-03T09:57:41.159Z,232.55
2018-10-03T10:00:11.619Z,224.37
2018-10-03T10:02:40.228Z,221.30
2018-10-03T10:05:08.913Z,285.52
2018-10-03T10:07:40.600Z,234.95
2018-10-03T10:10:09.237Z,228.50
2018-10-03T10:12:37.920Z,243.12
2018-10-03T10:15:06.607Z,244.40
2018-10-03T10:17:35.241Z,265.18
2018-10-03T10:20:04.097Z,270.25
2018-10-03T10:22:33.180Z,309.23
2018-10-03T10:25:04.676Z,316.38
2018-10-03T10:27:35.711Z,348.70
2018-10-03T10:30:04.464Z,434.40
2018-10-03T10:32:33.417Z,559.37
2018-10-03T10:35:01.941Z,465.02
2018-10-03T10:37:30.393Z,289.60
2018-10-03T10:39:59.148Z,446.45
2018-10-03T10:42:27.507Z,252.05
2018-10-03T10:44:56.747Z,253.67
2018-10-03T10:47:26.447Z,260.65
2018-10-03T10:49:55.420Z,259.37
2018-10-03T10:52:23.988Z,247.37
2018-10-03T10:54:52.604Z,318.37
2018-10-03T10:57:20.982Z,261.73
2018-10-03T10:59:49.680Z,274.10
2018-10-03T11:02:18.585Z,266.98
2018-10-03T11:04:46.972Z,266.63
2018-10-03T11:07:15.355Z,272.48
2018-10-03T11:09:43.951Z,390.75
2018-10-03T11:12:12.579Z,550.10
2018-10-03T11:14:41.142Z,294.07
2018-10-03T11:17:09.912Z,289.95
2018-10-03T11:19:38.933Z,292.77
2018-10-03T11:22:07.521Z,284.95
2018-10-03T11:24:36.022Z,241.85
2018-10-03T11:27:05.115Z,256.55
2018-10-03T11:29:33.800Z,256.68
2018-10-03T11:32:02.497Z,397.70
2018-10-03T11:34:31.400Z,250.72
2018-10-03T11:37:00.096Z,267.50
2018-10-03T11:39:28.561Z,244.43
2018-10-03T11:41:57.213Z,264.48
2018-10-03T11:44:25.768Z,246.55
2018-10-03T11:46:54.377Z,256.85
2018-10-03T11:49:23.184Z,264.55
2018-10-03T11:51:51.971Z,337.17
2018-10-03T11:54:35.395Z,254.32
2018-10-03T11:57:08.215Z,339.85
2018-10-03T11:59:36.994Z,243.95
2018-10-03T12:02:05.676Z,254.75
2018-10-03T12:04:34.839Z,266.98
2018-10-03T12:07:03.330Z,257.40
2018-10-03T12:09:32.994Z,258.98
2018-10-03T12:12:01.918Z,264.85
2018-10-03T12:14:30.356Z,285.17
2018-10-03T12:17:00.156Z,291.70
2018-10-03T12:19:28.828Z,271.40
2018-10-03T12:21:57.299Z,274.12
2018-10-03T12:24:25.785Z,274.23
2018-10-03T12:26:58.997Z,272.05
2018-10-03T12:29:27.682Z,256.27
2018-10-03T12:31:56.353Z,234.75
2018-10-03T12:34:24.982Z,254.18
2018-10-03T12:36:53.599Z,246.50
2018-10-03T12:39:23.152Z,251.82
2018-10-03T12:41:51.638Z,262.30
2018-10-03T12:44:20.173Z,254.30
2018-10-03T12:46:48.752Z,257.95
2018-10-03T12:49:17.830Z,254.90
2018-10-03T12:51:46.306Z,280.85
2018-10-03T12:54:14.925Z,303.40
2018-10-03T12:56:43.354Z,400.65
2018-10-03T12:59:12.482Z,402.88
2018-10-03T13:01:44.317Z,366.52
2018-10-03T13:04:13.156Z,356.20
2018-10-03T13:06:41.522Z,273.55
2018-10-03T13:09:11.941Z,294.07
2018-10-03T13:11:41.163Z,287.72
2018-10-03T13:14:09.960Z,280.62
2018-10-03T13:16:38.821Z,504.40
2018-10-03T13:19:08.915Z,313.15
2018-10-03T13:21:39.127Z,628.35
2018-10-03T13:24:07.754Z,345.70
2018-10-03T13:26:37.126Z,411.08
2018-10-03T13:29:05.763Z,775.35
2018-10-03T13:31:36.702Z,456.02
2018-10-03T13:34:05.896Z,577.33
2018-10-03T13:36:35.084Z,1040.20
2018-10-03T13:39:03.475Z,445.30
2018-10-03T13:41:32.217Z,475.72
2018-10-03T13:44:00.643Z,533.55
2018-10-03T13:46:29.320Z,989.78
2018-10-03T13:48:57.935Z,683.27
2018-10-03T13:51:26.652Z,895.55
2018-10-03T13:53:56.161Z,450.35
2018-10-03T13:56:26.099Z,803.65
2018-10-03T13:58:54.896Z,748.15
2018-10-03T14:01:23.596Z,541.10
2018-10-03T14:03:52.263Z,392.60
2018-10-03T14:06:20.754Z,442.10
2018-10-03T14:08:50.640Z,365.95
2018-10-03T14:11:19.310Z,426.85
2018-10-03T14:13:48.008Z,306.55
2018-10-03T14:16:18.975Z,289.20
2018-10-03T14:18:48.672Z,288.75
2018-10-03T14:21:18.032Z,264.12
2018-10-03T14:23:47.667Z,274.62
2018-10-03T14:26:16.143Z,317.55
2018-10-03T14:28:44.752Z,258.17
2018-10-03T14:31:13.228Z,273.65
2018-10-03T14:33:41.995Z,283.55
2018-10-03T14:36:10.656Z,288.55
2018-10-03T14:38:39.674Z,289.52
2018-10-03T14:41:08.213Z,239.68
2018-10-03T14:43:36.949Z,237.65
2018-10-03T14:46:05.278Z,244.13
2018-10-03T14:48:33.899Z,245.33
2018-10-03T14:51:02.493Z,255.95
2018-10-03T14:53:31.227Z,254.25
2018-10-03T14:55:59.740Z,281.93
2018-10-03T14:58:29.775Z,286.80
2018-10-03T15:00:59.687Z,292.75
2018-10-03T15:03:28.677Z,303.12
2018-10-03T15:05:57.660Z,281.55
2018-10-03T15:08:26.042Z,288.95
2018-10-03T15:10:54.558Z,323.82
2018-10-03T15:13:23.413Z,297.30
2018-10-03T15:15:52.012Z,313.57
2018-10-03T15:18:22.115Z,325.77
2018-10-03T15:20:50.586Z,325.70
2018-10-03T15:23:19.127Z,307.57
2018-10-03T15:25:47.470Z,274.45
2018-10-03T15:28:16.617Z,291.02
2018-10-03T15:30:45.263Z,332.83
2018-10-03T15:33:13.855Z,314.88
2018-10-03T15:35:42.768Z,287.38
2018-10-03T15:38:11.909Z,276.40
2018-10-03T15:40:42.438Z,287.23
2018-10-03T15:43:12.524Z,260.73
2018-10-03T15:45:42.699Z,241.38
2018-10-03T15:48:13.321Z,300.93
2018-10-03T15:50:43.334Z,254.10
2018-10-03T15:53:13.585Z,252.85
2018-10-03T15:55:43.853Z,268.85
2018-10-03T15:58:14.026Z,255.65
2018-10-03T16:00:46.854Z,266.08
2018-10-03T16:03:17.209Z,300.87
2018-10-03T16:05:48.403Z,275.48
2018-10-03T16:08:19.120Z,269.98
2018-10-03T16:10:53.729Z,248.70
2018-10-03T16:13:24.455Z,275.18
2018-10-03T16:15:56.936Z,252.72
2018-10-03T16:18:28.025Z,256.60
2018-10-03T16:20:59.714Z,252.00
2018-10-03T16:23:30.600Z,245.90
2018-10-03T16:26:01.279Z,242.50
2018-10-03T16:28:33.257Z,270.82
2018-10-03T16:31:02.755Z,262.32
2018-10-03T16:33:33.085Z,263.10
2018-10-03T16:36:03.884Z,253.32
2018-10-03T16:38:35.655Z,248.05
2018-10-03T16:41:08.340Z,257.20
2018-10-03T16:43:41.026Z,264.65
2018-10-03T16:46:11.616Z,262.20
2018-10-03T16:48:42.281Z,246.37
2018-10-03T16:51:11.236Z,259.55
2018-10-03T16:53:40.413Z,261.27
2018-10-03T16:56:09.446Z,261.48
2018-10-03T16:58:38.604Z,258.65
2018-10-03T17:01:08.098Z,235.13
2018-10-03T17:03:37.385Z,240.00
2018-10-03T17:06:06.093Z,245.73
2018-10-03T17:08:35.287Z,230.77
2018-10-03T17:11:04.036Z,248.03
2018-10-03T17:13:33.772Z,233.47
2018-10-03T17:16:02.676Z,249.15
2018-10-03T17:18:31.094Z,243.95
2018-10-03T17:21:01.169Z,237.97
2018-10-03T17:23:30.028Z,260.17
2018-10-03T17:25:58.348Z,251.82
2018-10-03T17:28:26.658Z,239.40
2018-10-03T17:30:55.257Z,237.05
2018-10-03T17:33:27.326Z,248.05
2018-10-03T17:35:57.164Z,237.12
2018-10-03T17:38:25.607Z,233.93
2018-10-03T17:40:54.219Z,231.90
2018-10-03T17:43:22.581Z,229.25
2018-10-03T17:45:51.183Z,243.07
2018-10-03T17:48:20.224Z,237.97
2018-10-03T17:50:48.624Z,224.15
2018-10-03T17:53:18.496Z,214.72
2018-10-03T17:55:47.801Z,225.45
2018-10-03T17:58:20.984Z,221.90
2018-10-03T18:00:51.205Z,224.95
2018-10-03T18:03:20.913Z,231.40
2018-10-03T18:05:49.787Z,242.93
2018-10-03T18:08:18.602Z,223.95
2018-10-03T18:10:47.515Z,232.60
2018-10-03T18:13:17.191Z,226.02
2018-10-03T18:15:48.160Z,235.93
2018-10-03T18:18:17.627Z,244.45
2018-10-03T18:20:46.056Z,216.33
2018-10-03T18:23:14.661Z,216.93
2018-10-03T18:25:43.439Z,221.00
2018-10-03T18:28:11.820Z,231.75
2018-10-03T18:30:40.352Z,219.20
2018-10-03T18:33:10.364Z,224.67
2018-10-03T18:35:39.139Z,220.05
2018-10-03T18:38:07.648Z,240.85
2018-10-03T18:40:36.260Z,225.00
2018-10-03T18:43:04.646Z,227.80
2018-10-03T18:45:34.518Z,234.00
2018-10-03T18:48:03.147Z,237.53
2018-10-03T18:50:32.304Z,240.87
2018-10-03T18:53:01.283Z,229.78
2018-10-03T18:55:31.027Z,238.55
2018-10-03T18:57:59.606Z,248.65
2018-10-03T19:00:28.801Z,236.55
2018-10-03T19:02:57.583Z,230.00
2018-10-03T19:05:26.149Z,217.62
2018-10-03T19:07:55.572Z,225.53
2018-10-03T19:10:24.396Z,220.80
2018-10-03T19:12:52.948Z,218.52
2018-10-03T19:15:21.980Z,231.02
2018-10-03T19:17:50.443Z,233.30
2018-10-03T19:20:19.239Z,308.87
2018-10-03T19:22:47.648Z,225.82
2018-10-03T19:25:16.495Z,218.85
2018-10-03T19:27:44.949Z,220.67
2018-10-03T19:30:13.899Z,231.53
2018-10-03T19:32:42.748Z,224.82
2018-10-03T19:35:11.142Z,222.88
2018-10-03T19:37:40.783Z,259.83
2018-10-03T19:40:09.807Z,225.45
2018-10-03T19:42:38.536Z,218.05
2018-10-03T19:45:06.820Z,216.80
2018-10-03T19:47:36.547Z,214.17
2018-10-03T19:50:04.846Z,212.95
2018-10-03T19:52:33.191Z,245.67
2018-10-03T19:55:02.748Z,227.45
2018-10-03T19:57:31.368Z,212.30
2018-10-03T19:59:59.819Z,212.90
2018-10-03T20:02:28.382Z,212.02
2018-10-03T20:04:57.028Z,218.20
2018-10-03T20:07:25.903Z,216.97
2018-10-03T20:09:56.594Z,250.28
2018-10-03T20:12:25.932Z,215.35
2018-10-03T20:14:54.165Z,210.05
2018-10-03T20:17:22.645Z,205.55
2018-10-03T20:19:51.048Z,248.78
2018-10-03T20:22:19.481Z,231.40
2018-10-03T20:24:49.141Z,230.37
2018-10-03T20:27:18.823Z,219.25
2018-10-03T20:29:47.650Z,216.88
2018-10-03T20:32:16.204Z,213.15
2018-10-03T20:34:44.852Z,224.05
2018-10-03T20:37:14.040Z,275.75
2018-10-03T20:39:43.164Z,217.30
2018-10-03T20:42:11.712Z,214.30
2018-10-03T20:44:40.514Z,212.12
2018-10-03T20:47:08.975Z,212.63
2018-10-03T20:49:37.627Z,211.07
2018-10-03T20:52:06.500Z,219.07
2018-10-03T20:54:34.975Z,261.50
2018-10-03T20:57:03.688Z,211.43
2018-10-03T20:59:32.028Z,210.65
2018-10-03T21:02:00.465Z,218.05
2018-10-03T21:04:28.913Z,230.57
2018-10-03T21:06:57.559Z,218.93
2018-10-03T21:09:26.125Z,213.22
2018-10-03T21:11:54.603Z,214.00
2018-10-03T21:14:22.923Z,219.60
2018-10-03T21:16:51.307Z,210.88
2018-10-03T21:19:19.640Z,217.00
2018-10-03T21:21:48.032Z,216.60
2018-10-03T21:24:16.555Z,254.35
2018-10-03T21:26:45.283Z,233.82
2018-10-03T21:29:13.699Z,216.50
2018-10-03T21:31:42.685Z,209.57
2018-10-03T21:34:11.284Z,218.00
2018-10-03T21:36:39.812Z,210.05
2018-10-03T21:39:08.544Z,209.67
2018-10-03T21:41:38.461Z,260.95
2018-10-03T21:44:06.941Z,205.50
2018-10-03T21:46:35.712Z,210.70
2018-10-03T21:49:04.204Z,226.90
2018-10-03T21:51:32.744Z,217.00
2018-10-03T21:54:01.235Z,207.60
2018-10-03T21:56:29.572Z,208.82
2018-10-03T21:58:57.942Z,207.90
2018-10-03T22:01:26.360Z,205.40
2018-10-03T22:03:54.724Z,207.92
2018-10-03T22:06:23.095Z,214.75
2018-10-03T22:08:51.484Z,210.95
2018-10-03T22:11:20.062Z,209.27
2018-10-03T22:13:48.723Z,211.03
2018-10-03T22:16:17.239Z,208.75
2018-10-03T22:18:45.891Z,210.20
2018-10-03T22:21:14.540Z,204.45
2018-10-03T22:23:43.371Z,205.03
2018-10-03T22:26:12.166Z,203.77
2018-10-03T22:28:40.660Z,210.55
2018-10-03T22:31:09.484Z,208.93
2018-10-03T22:33:38.017Z,204.25
2018-10-03T22:36:06.768Z,207.40
2018-10-03T22:38:35.488Z,207.15
2018-10-03T22:41:04.081Z,203.62
2018-10-03T22:43:32.636Z,203.77
2018-10-03T22:46:01.250Z,205.05
2018-10-03T22:48:29.939Z,208.75
2018-10-03T22:50:58.510Z,211.07
2018-10-03T22:53:27.631Z,203.83
2018-10-03T22:55:55.919Z,202.10
2018-10-03T22:58:24.632Z,204.40
2018-10-03T23:00:54.270Z,201.90
2018-10-03T23:03:27.141Z,202.87
2018-10-03T23:05:55.859Z,241.38
2018-10-03T23:08:24.640Z,206.55
2018-10-03T23:10:53.052Z,235.72
2018-10-03T23:13:21.308Z,211.18
2018-10-03T23:15:50.077Z,208.72
2018-10-03T23:18:18.471Z,210.38
2018-10-03T23:20:47.023Z,204.13
2018-10-03T23:23:15.365Z,202.82
2018-10-03T23:25:44.075Z,264.25
2018-10-03T23:28:12.686Z,212.53
2018-10-03T23:30:41.991Z,199.40
2018-10-03T23:33:10.577Z,209.90
2018-10-03T23:35:39.213Z,211.05
2018-10-03T23:38:07.813Z,201.30
2018-10-03T23:40:36.248Z,202.80
2018-10-03T23:43:04.686Z,201.37
2018-10-03T23:45:33.162Z,204.68
2018-10-03T23:48:01.617Z,204.43
2018-10-03T23:50:30.803Z,201.98
2018-10-03T23:52:59.578Z,198.68
2018-10-03T23:55:28.224Z,200.03
2018-10-03T23:57:56.805Z,208.93
